createdAt,value
2018-07-13T00:01:44.153Z,53.70
2018-07-13T00:04:12.341Z,55.63
2018-07-13T00:06:40.486Z,56.87
2018-07-13T00:09:10.185Z,56.93
2018-07-13T00:11:38.681Z,56.37
2018-07-13T00:14:11.758Z,57.30
2018-07-13T00:16:40.194Z,53.80
2018-07-13T00:19:08.322Z,54.93
2018-07-13T00:21:36.506Z,54.10
2018-07-13T00:24:04.995Z,56.47
2018-07-13T00:26:33.130Z,55.70
2018-07-13T00:29:01.266Z,54.73
2018-07-13T00:31:29.442Z,56.17
2018-07-13T00:33:58.424Z,58.60
2018-07-13T00:36:26.547Z,56.23
2018-07-13T00:38:54.805Z,53.47
2018-07-13T00:41:23.026Z,55.53
2018-07-13T00:43:51.208Z,54.37
2018-07-13T00:46:19.580Z,54.10
2018-07-13T00:48:47.738Z,56.90
2018-07-13T00:51:15.910Z,55.90
2018-07-13T00:53:44.447Z,54.60
2018-07-13T00:56:12.614Z,55.30
2018-07-13T00:58:40.771Z,58.60
2018-07-13T01:01:08.991Z,55.30
2018-07-13T01:03:37.480Z,53.10
2018-07-13T01:06:05.684Z,54.10
2018-07-13T01:08:33.894Z,55.40
2018-07-13T01:11:01.978Z,53.93
2018-07-13T01:13:30.119Z,55.60
2018-07-13T01:15:58.209Z,55.80
2018-07-13T01:18:26.339Z,60.17
2018-07-13T01:20:54.459Z,54.37
2018-07-13T01:23:22.711Z,55.70
2018-07-13T01:25:50.919Z,54.27
2018-07-13T01:28:19.005Z,53.67
2018-07-13T01:30:47.140Z,54.20
2018-07-13T01:33:15.275Z,58.13
2018-07-13T01:35:43.424Z,55.63
2018-07-13T01:38:11.571Z,53.47
2018-07-13T01:40:40.041Z,58.33
2018-07-13T01:43:08.138Z,53.90
2018-07-13T01:45:36.293Z,57.23
2018-07-13T01:48:04.400Z,58.10
2018-07-13T01:50:32.700Z,55.60
2018-07-13T01:53:00.820Z,55.80
2018-07-13T01:55:29.013Z,53.60
2018-07-13T01:57:57.115Z,55.67
2018-07-13T02:00:25.272Z,56.47
2018-07-13T02:02:53.406Z,55.70
2018-07-13T02:05:22.334Z,58.90
2018-07-13T02:07:50.463Z,56.70
2018-07-13T02:10:18.595Z,55.30
2018-07-13T02:12:46.734Z,56.27
2018-07-13T02:15:14.860Z,56.20
2018-07-13T02:17:42.982Z,54.77
2018-07-13T02:20:11.166Z,54.87
2018-07-13T02:22:39.310Z,54.60
2018-07-13T02:25:07.411Z,55.40
2018-07-13T02:27:35.549Z,57.03
2018-07-13T02:30:03.785Z,56.27
2018-07-13T02:32:31.914Z,56.60
2018-07-13T02:35:00.022Z,55.20
2018-07-13T02:37:28.171Z,54.57
2018-07-13T02:39:56.285Z,55.30
2018-07-13T02:42:24.418Z,54.80
2018-07-13T02:44:52.527Z,55.30
2018-07-13T02:47:20.634Z,55.00
2018-07-13T02:49:48.826Z,56.43
2018-07-13T02:52:17.032Z,55.60
2018-07-13T02:54:45.194Z,56.60
2018-07-13T02:57:13.354Z,57.97
2018-07-13T02:59:41.529Z,57.57
2018-07-13T03:02:09.677Z,57.63
2018-07-13T03:04:37.903Z,57.10
2018-07-13T03:07:06.087Z,57.27
2018-07-13T03:09:34.214Z,55.10
2018-07-13T03:12:02.347Z,55.27
2018-07-13T03:14:30.486Z,57.53
2018-07-13T03:16:58.613Z,57.77
2018-07-13T03:19:26.780Z,55.70
2018-07-13T03:21:54.894Z,56.90
2018-07-13T03:24:23.025Z,55.57
2018-07-13T03:26:52.042Z,56.97
2018-07-13T03:29:20.179Z,56.93
2018-07-13T03:31:48.342Z,57.50
2018-07-13T03:34:16.549Z,58.00
2018-07-13T03:36:44.672Z,56.50
2018-07-13T03:39:12.873Z,56.83
2018-07-13T03:41:41.018Z,57.37
2018-07-13T03:44:09.218Z,54.30
2018-07-13T03:46:38.438Z,58.23
2018-07-13T03:49:06.637Z,59.13
2018-07-13T03:51:34.866Z,56.17
2018-07-13T03:54:09.083Z,57.10
2018-07-13T03:59:17.118Z,57.00
2018-07-13T04:10:36.330Z,55.80
2018-07-13T04:21:42.034Z,56.20
2018-07-13T04:24:10.532Z,58.60
2018-07-13T04:30:10.884Z,54.67
2018-07-13T04:32:39.134Z,54.80
2018-07-13T04:35:07.311Z,54.00
2018-07-13T04:40:40.871Z,57.47
2018-07-13T04:43:09.130Z,55.30
2018-07-13T04:45:37.485Z,55.80
2018-07-13T04:48:05.974Z,58.40
2018-07-13T04:50:34.142Z,55.47
2018-07-13T04:53:02.359Z,55.60
2018-07-13T04:55:30.614Z,54.53
2018-07-13T04:57:58.804Z,57.80
2018-07-13T05:00:27.901Z,57.37
2018-07-13T05:02:57.006Z,56.00
2018-07-13T05:05:25.875Z,56.70
2018-07-13T05:07:58.140Z,55.53
2018-07-13T05:10:30.209Z,58.93
2018-07-13T05:13:07.283Z,59.73
2018-07-13T05:15:35.458Z,57.83
2018-07-13T05:18:03.678Z,57.27
2018-07-13T05:20:39.295Z,58.50
2018-07-13T05:23:11.107Z,56.07
2018-07-13T05:25:39.851Z,61.33
2018-07-13T05:28:09.303Z,59.20
2018-07-13T05:30:39.655Z,59.70
2018-07-13T05:33:19.271Z,58.87
2018-07-13T05:36:07.224Z,56.30
2018-07-13T05:38:48.174Z,61.77
2018-07-13T05:50:13.877Z,58.70
2018-07-13T05:52:49.282Z,58.27
2018-07-13T05:55:18.141Z,56.73
2018-07-13T05:57:56.282Z,60.20
2018-07-13T06:00:24.414Z,57.80
2018-07-13T06:02:52.570Z,57.60
2018-07-13T06:05:20.713Z,59.77
2018-07-13T06:07:48.900Z,56.83
2018-07-13T06:10:17.255Z,59.00
2018-07-13T06:12:45.660Z,57.57
2018-07-13T06:15:13.842Z,57.30
2018-07-13T06:17:41.986Z,56.40
2018-07-13T06:20:11.092Z,56.57
2018-07-13T06:22:39.434Z,56.00
2018-07-13T06:25:07.941Z,57.87
2018-07-13T06:27:36.223Z,59.00
2018-07-13T06:30:04.609Z,56.03
2018-07-13T06:32:32.766Z,54.90
2018-07-13T06:35:01.206Z,56.37
2018-07-13T06:37:30.374Z,57.00
2018-07-13T06:39:58.527Z,55.80
2018-07-13T06:42:26.678Z,57.50
2018-07-13T06:44:54.905Z,56.03
2018-07-13T06:47:23.005Z,56.60
2018-07-13T06:49:51.325Z,55.07
2018-07-13T06:52:19.782Z,58.17
2018-07-13T06:54:52.369Z,57.60
2018-07-13T06:57:31.969Z,57.77
2018-07-13T07:00:00.283Z,58.37
2018-07-13T07:02:39.716Z,58.10
2018-07-13T07:06:30.264Z,54.97
2018-07-13T07:08:58.500Z,58.30
2018-07-13T07:11:26.680Z,58.20
2018-07-13T07:13:54.852Z,64.10
2018-07-13T07:16:23.031Z,56.20
2018-07-13T07:18:52.037Z,58.30
2018-07-13T07:21:20.242Z,56.83
2018-07-13T07:23:48.470Z,56.13
2018-07-13T07:26:16.674Z,56.40
2018-07-13T07:28:44.885Z,60.10
2018-07-13T07:31:13.062Z,56.40
2018-07-13T07:33:41.725Z,54.47
2018-07-13T07:36:09.861Z,53.60
2018-07-13T07:38:38.406Z,55.67
2018-07-13T07:41:06.567Z,54.27
2018-07-13T07:43:34.731Z,54.87
2018-07-13T07:46:02.894Z,54.77
2018-07-13T07:48:31.958Z,58.10
2018-07-13T07:51:00.064Z,53.50
2018-07-13T07:53:28.198Z,53.27
2018-07-13T07:55:56.345Z,52.57
2018-07-13T07:58:24.473Z,50.97
2018-07-13T08:00:52.638Z,51.40
2018-07-13T08:03:20.765Z,54.83
2018-07-13T08:05:48.969Z,51.67
2018-07-13T08:08:17.163Z,52.67
2018-07-13T08:10:45.246Z,50.70
2018-07-13T08:13:13.383Z,55.13
2018-07-13T08:15:41.516Z,52.57
2018-07-13T08:18:09.618Z,51.17
2018-07-13T08:20:42.307Z,50.10
2018-07-13T08:23:10.422Z,54.10
2018-07-13T08:25:38.772Z,52.20
2018-07-13T08:28:07.746Z,50.23
2018-07-13T08:30:42.861Z,49.50
2018-07-13T08:33:10.975Z,52.10
2018-07-13T08:35:39.111Z,59.07
2018-07-13T08:38:07.379Z,65.03
2018-07-13T08:40:35.546Z,51.73
2018-07-13T08:43:03.682Z,48.90
2018-07-13T08:45:31.831Z,49.57
2018-07-13T08:47:59.912Z,49.03
2018-07-13T08:50:28.449Z,52.40
2018-07-13T08:52:56.970Z,49.77
2018-07-13T08:55:25.105Z,50.07
2018-07-13T08:57:53.248Z,48.37
2018-07-13T09:00:21.454Z,48.50
2018-07-13T09:02:50.430Z,49.27
2018-07-13T09:05:18.624Z,50.60
2018-07-13T09:07:46.709Z,47.40
2018-07-13T09:10:14.873Z,48.00
2018-07-13T09:12:43.062Z,48.00
2018-07-13T09:15:12.554Z,48.50
2018-07-13T09:17:40.694Z,47.90
2018-07-13T09:20:10.324Z,49.07
2018-07-13T09:22:38.509Z,48.27
2018-07-13T09:25:07.189Z,47.43
2018-07-13T09:27:35.289Z,48.23
2018-07-13T09:30:03.434Z,47.20
2018-07-13T09:32:31.605Z,47.40
2018-07-13T09:34:59.728Z,49.00
2018-07-13T09:37:27.922Z,47.80
2018-07-13T09:39:56.048Z,47.60
2018-07-13T09:42:24.193Z,51.87
2018-07-13T09:44:52.362Z,46.93
2018-07-13T09:47:20.470Z,48.43
2018-07-13T09:49:48.607Z,49.60
2018-07-13T09:52:16.729Z,47.10
2018-07-13T09:54:44.866Z,47.53
2018-07-13T09:57:13.007Z,48.30
2018-07-13T09:59:41.109Z,49.37
2018-07-13T10:02:09.222Z,49.17
2018-07-13T10:04:37.376Z,46.70
2018-07-13T10:07:05.911Z,47.30
2018-07-13T10:09:34.064Z,46.90
2018-07-13T10:12:02.207Z,47.60
2018-07-13T10:14:30.337Z,47.37
2018-07-13T10:16:58.477Z,47.77
2018-07-13T10:19:26.614Z,48.53
2018-07-13T10:21:56.281Z,47.03
2018-07-13T10:24:24.433Z,47.67
2018-07-13T10:26:52.595Z,48.17
2018-07-13T10:29:22.539Z,47.20
2018-07-13T10:31:50.903Z,49.80
2018-07-13T10:34:19.768Z,46.77
2018-07-13T10:36:54.282Z,51.60
2018-07-13T10:39:22.423Z,49.33
2018-07-13T10:41:50.580Z,48.50
2018-07-13T10:44:18.715Z,48.70
2018-07-13T10:46:46.899Z,48.50
2018-07-13T10:49:15.021Z,47.90
2018-07-13T10:51:43.139Z,49.67
2018-07-13T10:54:11.246Z,47.13
2018-07-13T10:56:39.443Z,47.00
2018-07-13T10:59:07.754Z,50.60
2018-07-13T11:01:35.866Z,48.80
2018-07-13T11:04:04.012Z,48.60
2018-07-13T11:06:32.290Z,47.17
2018-07-13T11:09:00.500Z,49.70
2018-07-13T11:11:28.714Z,47.40
2018-07-13T11:13:56.832Z,47.90
2018-07-13T11:16:24.974Z,46.70
2018-07-13T11:18:53.133Z,48.27
2018-07-13T11:21:21.306Z,48.60
2018-07-13T11:23:49.561Z,48.00
2018-07-13T11:26:17.768Z,48.87
2018-07-13T11:28:45.986Z,47.60
2018-07-13T11:31:14.143Z,46.80
2018-07-13T11:33:42.261Z,47.13
2018-07-13T11:36:10.349Z,47.90
2018-07-13T11:38:38.601Z,49.43
2018-07-13T11:41:06.781Z,47.67
2018-07-13T11:43:35.055Z,47.67
2018-07-13T11:46:03.331Z,48.60
2018-07-13T11:48:31.548Z,47.87
2018-07-13T11:50:59.674Z,47.40
2018-07-13T11:53:27.825Z,49.00
2018-07-13T11:55:57.864Z,46.40
2018-07-13T11:58:28.691Z,46.93
2018-07-13T12:00:57.626Z,46.53
2018-07-13T12:03:25.826Z,46.60
2018-07-13T12:05:54.047Z,48.23
2018-07-13T12:08:22.206Z,46.10
2018-07-13T12:10:50.349Z,47.80
2018-07-13T12:13:18.504Z,47.33
2018-07-13T12:15:47.351Z,47.10
2018-07-13T12:18:15.731Z,46.30
2018-07-13T12:20:43.862Z,46.43
2018-07-13T12:23:12.016Z,48.20
2018-07-13T12:25:40.122Z,46.37
2018-07-13T12:28:08.328Z,47.43
2018-07-13T12:30:36.487Z,48.93
2018-07-13T12:33:04.633Z,47.30
2018-07-13T12:35:32.810Z,47.30
2018-07-13T12:38:01.476Z,46.80
2018-07-13T12:40:29.569Z,47.27
2018-07-13T12:42:57.740Z,47.10
2018-07-13T12:45:25.903Z,46.40
2018-07-13T12:47:54.039Z,47.47
2018-07-13T12:50:22.180Z,47.47
2018-07-13T12:52:50.352Z,47.50
2018-07-13T12:55:18.493Z,46.40
2018-07-13T12:57:46.636Z,46.63
2018-07-13T13:00:14.834Z,46.37
2018-07-13T13:02:43.025Z,47.07
2018-07-13T13:05:11.173Z,46.90
2018-07-13T13:07:39.281Z,46.53
2018-07-13T13:10:07.675Z,46.90
2018-07-13T13:12:35.799Z,46.77
2018-07-13T13:15:04.077Z,46.70
2018-07-13T13:17:32.222Z,46.83
2018-07-13T13:20:00.342Z,46.90
2018-07-13T13:22:28.488Z,48.87
2018-07-13T13:24:56.730Z,47.00
2018-07-13T13:27:24.947Z,47.03
2018-07-13T13:29:53.101Z,46.60
2018-07-13T13:32:21.221Z,46.63
2018-07-13T13:34:50.016Z,46.30
2018-07-13T13:37:18.803Z,46.77
2018-07-13T13:39:47.342Z,46.87
2018-07-13T13:42:15.433Z,47.50
2018-07-13T13:44:43.767Z,47.07
2018-07-13T13:47:11.887Z,47.37
2018-07-13T13:49:40.065Z,47.37
2018-07-13T13:52:08.160Z,46.73
2018-07-13T13:54:36.303Z,47.50
2018-07-13T13:57:04.544Z,47.00
2018-07-13T13:59:32.689Z,48.13
2018-07-13T14:02:00.809Z,47.93
2018-07-13T14:04:35.328Z,47.00
2018-07-13T14:07:03.617Z,47.27
2018-07-13T14:09:31.742Z,47.50
2018-07-13T14:11:59.890Z,47.40
2018-07-13T14:14:28.090Z,47.07
2018-07-13T14:16:56.314Z,47.40
2018-07-13T14:19:24.487Z,47.90
2018-07-13T14:21:53.106Z,48.40
2018-07-13T14:24:21.329Z,50.80
2018-07-13T14:26:49.573Z,47.70
2018-07-13T14:29:17.710Z,48.07
2018-07-13T14:31:45.886Z,47.10
2018-07-13T14:34:14.114Z,48.87
2018-07-13T14:36:42.288Z,47.50
2018-07-13T14:39:10.837Z,48.27
2018-07-13T14:41:38.986Z,47.47
2018-07-13T14:44:07.141Z,47.40
2018-07-13T14:46:35.310Z,48.73
2018-07-13T14:49:04.760Z,46.87
2018-07-13T14:51:32.907Z,47.50
2018-07-13T14:54:01.096Z,49.53
2018-07-13T14:56:30.199Z,47.57
2018-07-13T14:58:58.353Z,48.50
2018-07-13T15:01:26.478Z,48.40
2018-07-13T15:03:54.760Z,46.50
2018-07-13T15:06:23.048Z,47.60
2018-07-13T15:08:51.136Z,46.90
2018-07-13T15:11:19.324Z,48.10
2018-07-13T15:13:47.476Z,49.47
2018-07-13T15:16:15.736Z,49.10
2018-07-13T15:18:43.889Z,47.77
2018-07-13T15:21:12.039Z,47.07
2018-07-13T15:23:40.147Z,47.77
2018-07-13T15:26:08.989Z,47.80
2018-07-13T15:28:37.103Z,47.83
2018-07-13T15:31:05.223Z,47.47
2018-07-13T15:33:33.346Z,47.83
2018-07-13T15:36:01.501Z,47.17
2018-07-13T15:38:29.619Z,47.97
2018-07-13T15:40:57.756Z,47.57
2018-07-13T15:43:25.891Z,48.97
2018-07-13T15:45:54.817Z,48.03
2018-07-13T15:48:23.242Z,49.80
2018-07-13T15:50:51.367Z,48.60
2018-07-13T15:53:19.549Z,49.30
2018-07-13T15:55:59.292Z,51.40
2018-07-13T15:58:28.433Z,48.17
2018-07-13T16:00:56.660Z,47.90
2018-07-13T16:03:25.123Z,47.33
2018-07-13T16:05:53.381Z,48.00
2018-07-13T16:08:21.528Z,48.00
2018-07-13T16:10:49.758Z,52.23
2018-07-13T16:13:17.860Z,49.07
2018-07-13T16:15:46.686Z,48.57
2018-07-13T16:18:14.821Z,47.20
2018-07-13T16:20:42.948Z,47.77
2018-07-13T16:23:11.096Z,47.77
2018-07-13T16:25:39.233Z,47.07
2018-07-13T16:28:07.373Z,48.43
2018-07-13T16:30:35.468Z,47.90
2018-07-13T16:33:03.632Z,46.80
2018-07-13T16:35:31.791Z,47.50
2018-07-13T16:37:59.902Z,45.90
2018-07-13T16:40:28.055Z,48.00
2018-07-13T16:42:56.174Z,47.30
2018-07-13T16:45:24.306Z,48.13
2018-07-13T16:47:52.989Z,50.30
2018-07-13T16:50:21.152Z,47.10
2018-07-13T16:52:49.300Z,47.80
2018-07-13T16:55:17.502Z,47.40
2018-07-13T16:57:45.634Z,48.97
2018-07-13T17:00:13.794Z,49.40
2018-07-13T17:02:41.931Z,48.60
2018-07-13T17:05:10.106Z,53.03
2018-07-13T17:07:38.256Z,47.77
2018-07-13T17:10:06.357Z,48.93
2018-07-13T17:12:34.449Z,51.67
2018-07-13T17:15:02.596Z,53.67
2018-07-13T17:17:30.714Z,54.90
2018-07-13T17:19:58.869Z,53.70
2018-07-13T17:22:27.008Z,49.47
2018-07-13T17:24:55.151Z,48.10
2018-07-13T17:27:23.306Z,48.20
2018-07-13T17:29:51.523Z,51.50
2018-07-13T17:32:19.687Z,50.70
2018-07-13T17:34:47.874Z,48.00
2018-07-13T17:37:16.070Z,48.77
2018-07-13T17:39:44.177Z,48.40
2018-07-13T17:42:12.294Z,47.80
2018-07-13T17:44:40.409Z,49.53
2018-07-13T17:47:08.616Z,48.37
2018-07-13T17:49:36.814Z,48.30
2018-07-13T17:52:05.056Z,47.90
2018-07-13T17:54:33.241Z,49.60
2018-07-13T17:57:01.357Z,48.70
2018-07-13T17:59:29.537Z,50.17
2018-07-13T18:01:57.973Z,47.27
2018-07-13T18:04:26.160Z,49.30
2018-07-13T18:06:54.293Z,49.07
2018-07-13T18:09:22.436Z,50.00
2018-07-13T18:11:50.611Z,50.47
2018-07-13T18:14:18.812Z,49.70
2018-07-13T18:16:46.957Z,48.80
2018-07-13T18:19:15.120Z,52.40
2018-07-13T18:21:43.270Z,50.60
2018-07-13T18:24:11.437Z,48.87
2018-07-13T18:26:39.582Z,50.07
2018-07-13T18:29:07.763Z,49.00
2018-07-13T18:31:35.930Z,52.13
2018-07-13T18:34:04.060Z,51.27
2018-07-13T18:36:32.195Z,50.77
2018-07-13T18:39:00.315Z,49.73
2018-07-13T18:41:28.441Z,50.67
2018-07-13T18:43:56.603Z,51.60
2018-07-13T18:46:24.762Z,52.63
2018-07-13T18:48:52.898Z,51.20
2018-07-13T18:51:21.111Z,49.37
2018-07-13T18:53:49.280Z,51.47
2018-07-13T18:56:17.437Z,49.50
2018-07-13T18:58:45.582Z,51.87
2018-07-13T19:01:13.735Z,49.07
2018-07-13T19:03:41.868Z,49.87
2018-07-13T19:06:10.052Z,51.27
2018-07-13T19:08:38.166Z,52.47
2018-07-13T19:11:06.895Z,51.00
2018-07-13T19:13:38.374Z,52.83
2018-07-13T19:16:06.525Z,54.60
2018-07-13T19:18:34.661Z,57.10
2018-07-13T19:21:02.838Z,52.97
2018-07-13T19:23:30.958Z,50.70
2018-07-13T19:25:59.068Z,50.33
2018-07-13T19:28:27.213Z,55.50
2018-07-13T19:30:55.473Z,52.67
2018-07-13T19:33:23.546Z,52.90
2018-07-13T19:35:51.649Z,56.97
2018-07-13T19:38:19.819Z,56.57
2018-07-13T19:40:48.025Z,54.03
2018-07-13T19:43:16.172Z,56.07
2018-07-13T19:45:44.305Z,53.70
2018-07-13T19:48:12.418Z,54.40
2018-07-13T19:50:40.514Z,55.50
2018-07-13T19:53:08.701Z,55.63
2018-07-13T19:55:36.839Z,56.70
2018-07-13T19:58:04.959Z,91.50
2018-07-13T20:00:33.062Z,84.40
2018-07-13T20:03:01.252Z,58.87
2018-07-13T20:05:29.305Z,60.20
2018-07-13T20:07:57.393Z,57.20
2018-07-13T20:10:25.500Z,60.10
2018-07-13T20:12:53.735Z,56.57
2018-07-13T20:15:21.898Z,60.70
2018-07-13T20:17:50.034Z,57.77
2018-07-13T20:20:18.244Z,60.73
2018-07-13T20:22:46.362Z,53.73
2018-07-13T20:25:14.508Z,53.30
2018-07-13T20:27:42.733Z,52.23
2018-07-13T20:30:10.861Z,54.10
2018-07-13T20:32:39.042Z,51.80
2018-07-13T20:35:07.169Z,53.00
2018-07-13T20:37:35.319Z,54.03
2018-07-13T20:40:03.628Z,50.73
2018-07-13T20:42:31.792Z,53.63
2018-07-13T20:44:59.975Z,52.10
2018-07-13T20:47:28.104Z,53.30
2018-07-13T20:49:56.405Z,53.93
2018-07-13T20:52:24.593Z,51.47
2018-07-13T20:54:52.685Z,52.60
2018-07-13T20:57:21.041Z,54.43
2018-07-13T20:59:49.892Z,51.87
2018-07-13T21:02:18.124Z,52.00
2018-07-13T21:04:46.234Z,51.40
2018-07-13T21:07:14.481Z,52.37
2018-07-13T21:09:42.597Z,55.13
2018-07-13T21:12:10.830Z,54.00
2018-07-13T21:14:38.977Z,55.50
2018-07-13T21:17:07.131Z,54.90
2018-07-13T21:19:35.337Z,57.20
2018-07-13T21:22:03.424Z,55.80
2018-07-13T21:24:31.645Z,54.60
2018-07-13T21:26:59.802Z,55.50
2018-07-13T21:29:27.918Z,53.57
2018-07-13T21:31:56.008Z,54.50
2018-07-13T21:34:24.149Z,55.70
2018-07-13T21:36:52.438Z,57.20
2018-07-13T21:39:20.560Z,55.90
2018-07-13T21:41:48.801Z,56.60
2018-07-13T21:44:16.916Z,57.27
2018-07-13T21:46:45.023Z,56.10
2018-07-13T21:49:13.197Z,55.13
2018-07-13T21:51:41.342Z,54.57
2018-07-13T21:54:09.580Z,56.87
2018-07-13T21:56:37.711Z,56.30
2018-07-13T21:59:05.873Z,52.00
2018-07-13T22:01:34.148Z,56.27
2018-07-13T22:04:02.344Z,55.73
2018-07-13T22:06:30.485Z,51.73
2018-07-13T22:09:02.275Z,53.40
2018-07-13T22:11:31.136Z,50.93
2018-07-13T22:13:59.532Z,53.00
2018-07-13T22:16:27.667Z,54.67
2018-07-13T22:18:56.311Z,53.90
2018-07-13T22:21:26.441Z,53.80
2018-07-13T22:23:54.774Z,54.53
2018-07-13T22:26:24.708Z,57.10
2018-07-13T22:28:52.948Z,57.80
2018-07-13T22:31:22.158Z,56.53
2018-07-13T22:33:50.479Z,52.77
2018-07-13T22:36:18.916Z,56.40
2018-07-13T22:38:47.348Z,55.17
2018-07-13T22:41:15.593Z,54.20
2018-07-13T22:43:44.152Z,51.43
2018-07-13T22:46:12.310Z,54.30
2018-07-13T22:48:40.603Z,55.73
2018-07-13T22:51:08.868Z,57.83
2018-07-13T22:53:37.002Z,57.13
2018-07-13T22:56:06.585Z,56.70
2018-07-13T22:58:34.853Z,52.63
2018-07-13T23:01:03.530Z,51.43
2018-07-13T23:03:33.351Z,53.13
2018-07-13T23:06:02.363Z,51.90
2018-07-13T23:08:30.500Z,52.63
2018-07-13T23:10:59.203Z,51.83
2018-07-13T23:13:27.334Z,58.60
2018-07-13T23:15:55.514Z,51.17
2018-07-13T23:18:23.665Z,51.40
2018-07-13T23:20:51.883Z,51.87
2018-07-13T23:23:20.072Z,54.10
2018-07-13T23:25:48.243Z,54.27
2018-07-13T23:28:16.417Z,50.40
2018-07-13T23:30:44.572Z,51.20
2018-07-13T23:33:12.708Z,56.07
2018-07-13T23:35:41.871Z,53.20
2018-07-13T23:38:10.028Z,51.60
2018-07-13T23:40:38.191Z,54.87
2018-07-13T23:43:06.487Z,52.33
2018-07-13T23:45:34.639Z,52.30
2018-07-13T23:48:02.771Z,52.60
2018-07-13T23:50:31.498Z,51.77
2018-07-13T23:52:59.662Z,52.80
2018-07-13T23:55:27.849Z,51.53
2018-07-13T23:57:55.976Z,51.00
